createdAt,value
2023-05-21T00:03:54.095Z,3.7
2023-05-21T00:08:53.862Z,3.6
2023-05-21T00:13:53.826Z,4.1
2023-05-21T00:18:54.269Z,3.9
2023-05-21T00:23:54.099Z,4.1
2023-05-21T00:28:53.758Z,3.9
2023-05-21T00:33:53.720Z,3.8
2023-05-21T00:38:53.957Z,4.2
2023-05-21T00:43:53.553Z,4
2023-05-21T00:48:54.327Z,3.9
2023-05-21T00:53:53.821Z,3.9
2023-05-21T00:58:53.670Z,3.8
2023-05-21T01:03:54.270Z,4.1
2023-05-21T01:08:53.864Z,4.1
2023-05-21T01:13:53.636Z,3.6
2023-05-21T01:18:54.032Z,3.8
2023-05-21T01:23:53.270Z,4
2023-05-21T01:28:53.585Z,3.8
2023-05-21T01:33:55.132Z,4.1
2023-05-21T01:38:55.375Z,3.9
2023-05-21T01:43:53.570Z,3.8
2023-05-21T01:48:53.564Z,4.3
2023-05-21T01:53:53.065Z,4.3
2023-05-21T01:58:53.032Z,4.2
2023-05-21T02:03:53.000Z,4.8
2023-05-21T02:08:53.000Z,4.5
2023-05-21T02:13:54.380Z,4.7
2023-05-21T02:18:57.361Z,4.6
2023-05-21T02:23:52.676Z,4.4
2023-05-21T02:28:52.749Z,4.6
2023-05-21T02:33:52.583Z,5.1
2023-05-21T02:38:52.670Z,5.1
2023-05-21T02:43:52.282Z,5.2
2023-05-21T02:48:52.207Z,5.3
2023-05-21T02:53:52.242Z,5.5
2023-05-21T02:58:51.942Z,5.3
2023-05-21T03:03:51.790Z,5.2
2023-05-21T03:08:51.601Z,5.7
2023-05-21T03:13:51.519Z,5.3
2023-05-21T03:18:51.347Z,5.5
2023-05-21T03:23:51.348Z,5.4
2023-05-21T03:28:51.028Z,5.1
2023-05-21T03:33:51.148Z,5.6
2023-05-21T03:38:50.603Z,5.8
2023-05-21T03:43:50.445Z,5.3
2023-05-21T03:48:50.200Z,5.7
2023-05-21T03:53:50.172Z,5.7
2023-05-21T03:58:49.946Z,6
2023-05-21T04:03:50.004Z,5.4
2023-05-21T04:08:49.683Z,5.9
2023-05-21T04:13:49.608Z,6
2023-05-21T04:18:49.872Z,5.8
2023-05-21T04:23:49.218Z,5.8
2023-05-21T04:28:49.010Z,5.9
2023-05-21T04:33:49.475Z,6
2023-05-21T04:38:48.788Z,6
2023-05-21T04:43:48.709Z,6.6
2023-05-21T04:48:51.104Z,6.4
2023-05-21T04:53:49.817Z,6.1
2023-05-21T04:58:49.076Z,6.1
2023-05-21T05:03:49.082Z,6
2023-05-21T05:08:48.447Z,6.9
2023-05-21T05:13:47.899Z,5.6
2023-05-21T05:18:47.849Z,6.4
2023-05-21T05:23:47.877Z,6.4
2023-05-21T05:28:47.722Z,5.8
2023-05-21T05:33:47.556Z,6.2
2023-05-21T05:38:47.494Z,6.1
2023-05-21T05:43:47.422Z,6.7
2023-05-21T05:48:47.472Z,6.1
2023-05-21T05:53:47.317Z,6.1
2023-05-21T05:58:47.218Z,6.5
2023-05-21T06:03:47.373Z,6.1
2023-05-21T06:08:47.300Z,6.6
2023-05-21T06:13:47.151Z,5.2
2023-05-21T06:18:47.113Z,6.1
2023-05-21T06:23:47.045Z,6.3
2023-05-21T06:28:47.021Z,6.1
2023-05-21T06:33:49.362Z,6
2023-05-21T06:38:47.867Z,6.2
2023-05-21T06:43:47.045Z,5.8
2023-05-21T06:48:47.670Z,5.3
2023-05-21T06:53:47.244Z,5.4
2023-05-21T06:58:47.311Z,5.7
2023-05-21T07:03:47.577Z,5.9
2023-05-21T07:08:49.401Z,6.1
2023-05-21T07:13:48.012Z,6
2023-05-21T07:18:48.019Z,5.6
2023-05-21T07:23:48.222Z,5.6
2023-05-21T07:28:48.906Z,6
2023-05-21T07:33:48.699Z,6
2023-05-21T07:38:48.888Z,5.7
2023-05-21T07:43:49.197Z,5.4
2023-05-21T07:48:49.895Z,5.5
2023-05-21T07:53:49.673Z,5.5
2023-05-21T07:58:50.445Z,6.7
2023-05-21T08:03:50.322Z,6.2
2023-05-21T08:08:50.441Z,5.7
2023-05-21T08:13:50.662Z,6.2
2023-05-21T08:18:50.898Z,6.5
2023-05-21T08:23:51.063Z,6.2
2023-05-21T08:28:51.256Z,6.7
2023-05-21T08:33:57.829Z,6.6
2023-05-21T08:38:51.644Z,7.2
2023-05-21T08:43:53.589Z,6.7
2023-05-21T08:48:54.770Z,7
2023-05-21T08:53:52.666Z,6.6
2023-05-21T08:58:52.917Z,6.4
2023-05-21T09:03:59.119Z,7.4
2023-05-21T09:08:57.883Z,7.3
2023-05-21T09:13:55.254Z,7
2023-05-21T09:18:54.354Z,6.6
2023-05-21T09:23:56.486Z,7.5
2023-05-21T09:28:55.286Z,7.5
2023-05-21T09:33:55.682Z,7.5
2023-05-21T09:38:57.696Z,8.4
2023-05-21T09:43:56.576Z,8
2023-05-21T09:48:57.047Z,8.8
2023-05-21T09:53:58.304Z,8.9
2023-05-21T09:59:04.099Z,9.3
2023-05-21T10:03:59.705Z,8.5
2023-05-21T10:09:02.485Z,9.6
2023-05-21T10:14:03.056Z,9.4
2023-05-21T10:19:01.636Z,10.8
2023-05-21T10:24:01.362Z,10.3
2023-05-21T10:29:01.083Z,10.1
2023-05-21T10:34:01.329Z,10.6
2023-05-21T10:39:02.479Z,10.4
2023-05-21T10:44:11.266Z,10.4
2023-05-21T10:49:11.090Z,11
2023-05-21T10:54:12.706Z,10.5
2023-05-21T10:59:22.192Z,11.2
2023-05-21T11:04:03.876Z,11
2023-05-21T11:09:04.910Z,10.3
2023-05-21T11:14:04.637Z,9.9
2023-05-21T11:19:06.374Z,10.8
2023-05-21T11:24:11.083Z,10.7
2023-05-21T11:29:14.686Z,10.6
2023-05-21T11:34:17.980Z,8.5
2023-05-21T11:39:21.586Z,10.3
2023-05-21T11:44:12.270Z,11
2023-05-21T11:49:09.184Z,11.3
2023-05-21T11:54:08.734Z,11.5
2023-05-21T11:59:18.796Z,9.4
2023-05-21T12:04:11.993Z,11.1
2023-05-21T12:09:10.164Z,10.6
2023-05-21T12:14:10.936Z,11.9
2023-05-21T12:19:11.385Z,10.3
2023-05-21T12:24:11.892Z,11.1
2023-05-21T12:29:12.433Z,12.1
2023-05-21T12:34:12.998Z,11.5
2023-05-21T12:39:13.669Z,11
2023-05-21T12:44:15.094Z,12.8
2023-05-21T12:49:24.533Z,10.5
2023-05-21T12:54:19.370Z,9.8
2023-05-21T12:59:16.478Z,10.9
2023-05-21T13:04:16.302Z,10.3
2023-05-21T13:09:16.788Z,11.3
2023-05-21T13:14:17.312Z,10.7
2023-05-21T13:19:18.586Z,10.3
2023-05-21T13:24:18.348Z,10.7
2023-05-21T13:29:18.894Z,10.3
2023-05-21T13:34:19.608Z,10.3
2023-05-21T13:39:26.517Z,10.5
2023-05-21T13:44:20.482Z,10.1
2023-05-21T13:49:20.995Z,10.6
2023-05-21T13:54:21.591Z,9.9
2023-05-21T13:59:21.969Z,9.9
2023-05-21T14:04:22.900Z,10.4
2023-05-21T14:09:23.428Z,10.9
2023-05-21T14:14:23.535Z,10.7
2023-05-21T14:19:24.017Z,11.1
2023-05-21T14:24:24.462Z,10.3
2023-05-21T14:29:24.879Z,9.7
2023-05-21T14:34:25.308Z,11
2023-05-21T14:39:25.880Z,10.5
2023-05-21T14:44:26.249Z,9.8
2023-05-21T14:49:26.758Z,9.4
2023-05-21T14:54:27.339Z,11
2023-05-21T14:59:27.827Z,11
2023-05-21T15:04:28.448Z,11
2023-05-21T15:09:29.009Z,10.8
2023-05-21T15:14:29.533Z,11
2023-05-21T15:19:30.255Z,11.1
2023-05-21T15:24:30.779Z,11.1
2023-05-21T15:29:31.708Z,11.3
2023-05-21T15:34:31.825Z,10.3
2023-05-21T15:39:32.475Z,10.5
2023-05-21T15:44:32.775Z,10.2
2023-05-21T15:49:33.581Z,10.2
2023-05-21T15:54:34.426Z,10.5
2023-05-21T15:59:34.547Z,10.2
2023-05-21T16:04:35.911Z,9.6
2023-05-21T16:09:37.676Z,11.1
2023-05-21T16:14:36.337Z,9.5
2023-05-21T16:19:36.952Z,10.5
2023-05-21T16:24:37.499Z,9.2
2023-05-21T16:29:40.728Z,10.2
2023-05-21T16:34:38.624Z,9.1
2023-05-21T16:39:39.292Z,9.6
2023-05-21T16:44:40.174Z,9.6
2023-05-21T16:49:40.933Z,9.2
2023-05-21T16:54:42.999Z,9.4
2023-05-21T16:59:41.571Z,9.4
2023-05-21T17:04:42.161Z,9
2023-05-21T17:09:42.770Z,9.8
2023-05-21T17:14:43.387Z,10
2023-05-21T17:19:44.705Z,9.3
2023-05-21T17:24:44.304Z,9.2
2023-05-21T17:29:44.824Z,9.9
2023-05-21T17:34:45.687Z,10
2023-05-21T17:39:45.828Z,11
2023-05-21T17:44:46.266Z,10.7
2023-05-21T17:49:46.834Z,10
2023-05-21T17:54:47.238Z,10.5
2023-05-21T17:59:47.694Z,10.9
2023-05-21T18:04:48.127Z,11.8
2023-05-21T18:09:48.479Z,10.6
2023-05-21T18:14:48.871Z,11.9
2023-05-21T18:19:49.376Z,12
2023-05-21T18:24:49.680Z,12.2
2023-05-21T18:29:50.269Z,11.6
2023-05-21T18:34:50.439Z,11.3
2023-05-21T18:39:50.961Z,11.6
2023-05-21T18:44:54.274Z,12.1
2023-05-21T18:49:51.464Z,12.1
2023-05-21T18:54:51.775Z,12.6
2023-05-21T18:59:52.200Z,12.4
2023-05-21T19:04:52.593Z,13.1
2023-05-21T19:09:52.783Z,12.6
2023-05-21T19:14:53.057Z,13.8
2023-05-21T19:19:55.873Z,13.6
2023-05-21T19:24:53.528Z,12.5
2023-05-21T19:29:53.892Z,13.3
2023-05-21T19:34:54.083Z,13.9
2023-05-21T19:39:54.460Z,13.6
2023-05-21T19:44:54.700Z,14.5
2023-05-21T19:49:55.656Z,12.9
2023-05-21T19:54:55.162Z,13.5
2023-05-21T19:59:55.387Z,13.9
2023-05-21T20:04:57.600Z,13.2
2023-05-21T20:09:55.945Z,13.9
2023-05-21T20:14:56.826Z,12.9
2023-05-21T20:19:57.069Z,14.2
2023-05-21T20:24:57.645Z,14.8
2023-05-21T20:29:56.758Z,16.4
2023-05-21T20:35:03.380Z,17.8
2023-05-21T20:39:57.918Z,16.9
2023-05-21T20:44:58.798Z,16.2
2023-05-21T20:49:57.688Z,16.3
2023-05-21T20:54:59.473Z,18.1
2023-05-21T20:59:57.987Z,19
2023-05-21T21:04:59.875Z,18.2
2023-05-21T21:09:58.309Z,19.5
2023-05-21T21:14:58.732Z,19.2
2023-05-21T21:19:58.857Z,20.2
2023-05-21T21:24:58.952Z,19.1
2023-05-21T21:29:59.082Z,19.5
2023-05-21T21:34:59.194Z,19.4
2023-05-21T21:39:59.440Z,20
2023-05-21T21:44:59.570Z,18.6
2023-05-21T21:49:59.792Z,19.8
2023-05-21T21:54:59.925Z,20.2
2023-05-21T22:00:00.087Z,20.2
2023-05-21T22:05:00.525Z,18.2
2023-05-21T22:10:00.372Z,20.4
2023-05-21T22:15:04.946Z,19.6
2023-05-21T22:20:00.754Z,20.9
2023-05-21T22:25:00.813Z,20.6
2023-05-21T22:30:01.199Z,22.3
2023-05-21T22:35:02.304Z,20.8
2023-05-21T22:40:01.331Z,20.5
2023-05-21T22:45:01.769Z,21.6
2023-05-21T22:50:04.423Z,21.3
2023-05-21T22:55:01.762Z,20.5
2023-05-21T23:00:01.930Z,21.5
2023-05-21T23:05:02.151Z,24.2
2023-05-21T23:10:02.266Z,24.5
2023-05-21T23:15:02.465Z,23.7
2023-05-21T23:20:02.512Z,24.1
2023-05-21T23:25:02.718Z,25.5
2023-05-21T23:30:02.817Z,25.1
2023-05-21T23:35:02.938Z,25.8
2023-05-21T23:40:03.213Z,25.8
2023-05-21T23:45:03.553Z,26.8
2023-05-21T23:50:03.385Z,26.5
2023-05-21T23:55:03.579Z,26.9
